Time;durP1;ratioP1;P1;durP2;ratioP2;P2;SDS_P1;SDS_P2;PMS_P1;PMS_P2;Temp;Humidity;BMP_temperature;BMP_pressure;BME280_temperature;BME280_humidity;BME280_pressure;Samples;Min_cycle;Max_cycle;Signal;HPM_P1;HPM_P2
2021/08/05 00:00:40;;;;;;;3.00;1.80;;;15.70;99.90;;;;;;20585553;28;20046;-85
2021/08/05 00:10:41;;;;;;;3.40;1.50;;;15.70;99.90;;;;;;20586000;28;20136;-86
2021/08/05 00:20:43;;;;;;;3.28;1.65;;;15.60;99.90;;;;;;20593724;28;20038;-85
2021/08/05 00:30:44;;;;;;;3.78;2.05;;;15.60;99.90;;;;;;20579244;28;20053;-85
2021/08/05 00:40:45;;;;;;;3.92;2.08;;;15.40;99.90;;;;;;20573595;28;20043;-85
2021/08/05 00:50:48;;;;;;;3.50;1.85;;;15.30;99.90;;;;;;20556984;28;20120;-85
2021/08/05 01:00:55;;;;;;;4.35;1.98;;;15.20;99.90;;;;;;20563511;28;20058;-87
2021/08/05 01:11:10;;;;;;;3.65;2.47;;;15.20;99.90;;;;;;20531509;28;20047;-87
2021/08/05 01:21:31;;;;;;;4.13;2.25;;;15.20;99.90;;;;;;20570239;28;20316;-87
2021/08/05 01:31:33;;;;;;;3.33;1.92;;;15.10;99.90;;;;;;20585299;28;20038;-87
2021/08/05 01:41:37;;;;;;;4.70;1.95;;;15.10;99.90;;;;;;20576092;28;20073;-87
2021/08/05 01:51:39;;;;;;;4.72;2.45;;;14.90;99.90;;;;;;20609630;28;20056;-86
2021/08/05 02:01:42;;;;;;;2.95;1.65;;;14.80;99.90;;;;;;20625414;28;20038;-86
2021/08/05 02:11:48;;;;;;;3.80;2.05;;;14.70;99.90;;;;;;20601602;28;20108;-86
2021/08/05 02:21:50;;;;;;;2.28;1.58;;;14.60;99.90;;;;;;20615664;28;20181;-87
2021/08/05 02:31:51;;;;;;;3.78;1.98;;;14.50;99.90;;;;;;20612904;28;20115;-87
2021/08/05 02:41:54;;;;;;;4.18;1.85;;;14.40;99.90;;;;;;20550199;28;20210;-87
2021/08/05 02:51:56;;;;;;;3.35;1.90;;;14.40;99.90;;;;;;20574630;28;20128;-86
2021/08/05 03:01:58;;;;;;;4.05;2.17;;;14.30;99.90;;;;;;20597497;28;20080;-87
2021/08/05 03:11:59;;;;;;;2.85;1.67;;;14.10;99.90;;;;;;20588834;28;20257;-87
2021/08/05 03:22:01;;;;;;;4.72;2.40;;;14.20;99.90;;;;;;20580974;28;20352;-86
2021/08/05 03:32:02;;;;;;;4.40;2.08;;;14.30;99.90;;;;;;20585285;28;20053;-88
2021/08/05 03:42:03;;;;;;;4.20;2.33;;;14.10;99.90;;;;;;20568616;28;20238;-87
2021/08/05 03:52:05;;;;;;;4.32;2.58;;;14.10;99.90;;;;;;20579400;28;20033;-87
2021/08/05 04:02:06;;;;;;;6.03;2.72;;;14.20;99.90;;;;;;20549983;28;20527;-87
2021/08/05 04:12:07;;;;;;;6.55;3.00;;;14.10;99.90;;;;;;20541566;28;20042;-87
2021/08/05 04:22:08;;;;;;;5.38;2.38;;;14.10;99.90;;;;;;20590218;28;20046;-87
2021/08/05 04:32:09;;;;;;;7.05;3.53;;;14.10;99.90;;;;;;20569391;28;20121;-88
2021/08/05 04:42:11;;;;;;;6.05;3.00;;;14.20;99.90;;;;;;20586512;28;20169;-87
2021/08/05 04:52:12;;;;;;;6.50;3.40;;;14.30;99.90;;;;;;20581427;28;20089;-87
2021/08/05 05:02:13;;;;;;;6.53;3.63;;;14.40;99.90;;;;;;20580419;28;20457;-87
2021/08/05 05:12:14;;;;;;;5.10;2.67;;;14.40;99.90;;;;;;20582645;28;20057;-87
2021/08/05 05:22:15;;;;;;;6.30;3.05;;;14.50;99.90;;;;;;20561763;28;20046;-87
2021/08/05 05:32:17;;;;;;;6.82;3.47;;;14.60;99.90;;;;;;20528605;28;20255;-87
2021/08/05 05:42:19;;;;;;;6.07;3.42;;;14.90;99.90;;;;;;20546925;28;20082;-86
2021/08/05 05:52:21;;;;;;;5.30;2.80;;;14.90;99.90;;;;;;20570767;28;20122;-87
2021/08/05 06:02:23;;;;;;;5.45;2.85;;;15.10;99.90;;;;;;20584755;28;20064;-85
2021/08/05 06:12:24;;;;;;;5.35;2.67;;;15.30;99.90;;;;;;20576132;28;20253;-85
2021/08/05 06:22:25;;;;;;;6.53;3.33;;;15.50;99.90;;;;;;20547375;28;20307;-86
2021/08/05 06:32:26;;;;;;;5.45;2.75;;;15.70;99.90;;;;;;20558764;28;20049;-86
2021/08/05 06:42:27;;;;;;;5.95;3.33;;;15.70;99.90;;;;;;20559807;28;20054;-86
2021/08/05 06:52:28;;;;;;;6.00;3.13;;;15.90;99.90;;;;;;20553602;28;20260;-85
2021/08/05 07:02:31;;;;;;;5.72;3.45;;;16.10;99.90;;;;;;20556466;28;20074;-86
2021/08/05 07:12:32;;;;;;;6.18;3.55;;;16.40;99.90;;;;;;20575963;28;20132;-86
2021/08/05 07:22:34;;;;;;;6.82;3.70;;;16.80;99.90;;;;;;20576596;28;20455;-84
2021/08/05 07:32:35;;;;;;;8.32;3.67;;;17.20;99.90;;;;;;20562272;28;20410;-85
2021/08/05 07:42:37;;;;;;;7.47;4.40;;;17.50;99.90;;;;;;20601256;28;20054;-84
2021/08/05 07:52:38;;;;;;;7.85;4.47;;;17.80;99.90;;;;;;20623468;28;20046;-85
2021/08/05 08:02:40;;;;;;;7.07;3.75;;;18.30;99.90;;;;;;20591917;28;20521;-85
2021/08/05 08:12:41;;;;;;;8.73;4.03;;;18.70;99.90;;;;;;20642856;28;20422;-85
2021/08/05 08:22:42;;;;;;;6.38;3.75;;;19.20;99.90;;;;;;20605347;28;20485;-84
2021/08/05 08:32:46;;;;;;;8.52;4.13;;;19.40;99.90;;;;;;20595949;28;20826;-85
2021/08/05 08:42:48;;;;;;;6.28;3.13;;;19.80;99.90;;;;;;20592468;28;20094;-84
2021/08/05 08:52:53;;;;;;;6.63;3.13;;;19.80;99.90;;;;;;20599436;28;20050;-84
2021/08/05 09:02:55;;;;;;;8.95;4.00;;;20.60;99.90;;;;;;20592965;28;20152;-85
2021/08/05 09:12:57;;;;;;;5.47;3.40;;;20.70;99.90;;;;;;20590709;28;20780;-85
2021/08/05 09:22:59;;;;;;;6.72;3.13;;;21.20;99.90;;;;;;20600548;28;20793;-85
2021/08/05 09:33:10;;;;;;;5.85;4.00;;;21.20;99.90;;;;;;20584139;28;20834;-86
2021/08/05 09:43:22;;;;;;;6.05;3.50;;;21.10;99.90;;;;;;20584414;28;20132;-85
2021/08/05 09:53:23;;;;;;;7.35;4.10;;;20.80;99.90;;;;;;20666182;28;20954;-85
2021/08/05 10:03:29;;;;;;;6.50;3.83;;;20.60;99.90;;;;;;20582433;28;20841;-86
2021/08/05 10:13:39;;;;;;;5.63;3.20;;;20.20;99.90;;;;;;20591084;28;20046;-85
2021/08/05 10:23:42;;;;;;;4.40;3.00;;;20.00;99.90;;;;;;20587439;28;20252;-85
2021/08/05 10:33:44;;;;;;;4.95;2.75;;;19.90;99.90;;;;;;20579139;28;20041;-85
2021/08/05 10:43:47;;;;;;;4.30;2.20;;;20.00;99.90;;;;;;20547903;28;20057;-85
2021/08/05 10:53:48;;;;;;;7.88;4.38;;;20.00;99.90;;;;;;20545789;28;20117;-84
2021/08/05 11:03:49;;;;;;;8.55;3.65;;;20.10;99.90;;;;;;20560251;28;20133;-84
2021/08/05 11:13:59;;;;;;;13.63;5.18;;;20.40;99.90;;;;;;20561716;28;20572;-84
2021/08/05 11:24:00;;;;;;;14.60;5.20;;;21.10;99.90;;;;;;20591581;28;20052;-84
2021/08/05 11:34:07;;;;;;;11.40;6.15;;;21.60;99.90;;;;;;20592905;28;20502;-85
2021/08/05 11:44:24;;;;;;;9.70;5.17;;;22.20;99.90;;;;;;20602376;28;20042;-85
2021/08/05 11:54:25;;;;;;;10.63;5.20;;;22.70;99.90;;;;;;20603526;28;20061;-85
2021/08/05 12:04:26;;;;;;;9.32;4.50;;;23.80;99.90;;;;;;20585176;28;20034;-85
2021/08/05 12:14:27;;;;;;;6.20;3.40;;;23.80;99.90;;;;;;20572101;28;20042;-85
2021/08/05 12:24:46;;;;;;;8.10;4.53;;;24.00;99.90;;;;;;20598937;28;20194;-85
2021/08/05 12:34:48;;;;;;;8.98;4.07;;;24.40;99.90;;;;;;20584404;28;20046;-85
2021/08/05 12:44:49;;;;;;;6.07;3.75;;;23.80;99.90;;;;;;20581518;28;20054;-85
2021/08/05 12:54:57;;;;;;;9.27;5.28;;;23.70;99.90;;;;;;20575891;28;20242;-85
2021/08/05 13:05:08;;;;;;;7.40;3.90;;;24.80;99.90;;;;;;20527683;28;20054;-84
2021/08/05 13:15:33;;;;;;;6.50;3.60;;;24.50;99.90;;;;;;20568453;28;20133;-84
2021/08/05 13:25:41;;;;;;;6.95;4.28;;;24.50;99.90;;;;;;20593450;28;20111;-84
2021/08/05 13:35:47;;;;;;;5.88;2.72;;;24.50;99.90;;;;;;20630222;28;20046;-84
2021/08/05 13:45:48;;;;;;;4.88;3.30;;;23.70;99.90;;;;;;20611976;28;20038;-84
2021/08/05 13:55:49;;;;;;;8.43;4.43;;;22.90;99.90;;;;;;20577759;28;20130;-84
2021/08/05 14:05:50;;;;;;;7.78;4.50;;;23.30;99.90;;;;;;20577448;28;20300;-85
2021/08/05 14:15:51;;;;;;;6.65;4.13;;;23.40;99.90;;;;;;20563823;28;20087;-85
2021/08/05 14:25:54;;;;;;;9.70;4.25;;;23.30;99.90;;;;;;20569280;28;20069;-85
2021/08/05 14:35:55;;;;;;;9.80;4.28;;;23.10;99.90;;;;;;20587128;28;20034;-84
2021/08/05 14:45:57;;;;;;;6.50;3.35;;;23.00;99.90;;;;;;20578145;28;20043;-83
2021/08/05 14:55:58;;;;;;;8.68;4.25;;;23.30;99.90;;;;;;20606904;28;20125;-83
2021/08/05 15:06:04;;;;;;;7.43;4.13;;;22.90;99.90;;;;;;20608003;28;20061;-83
2021/08/05 15:16:05;;;;;;;6.75;4.07;;;22.90;99.90;;;;;;20622599;28;20316;-83
2021/08/05 15:26:07;;;;;;;5.95;3.65;;;23.10;99.90;;;;;;20594344;28;20069;-83
2021/08/05 15:36:10;;;;;;;8.20;4.40;;;23.30;99.90;;;;;;20611552;28;20031;-83
2021/08/05 15:46:12;;;;;;;5.93;3.35;;;23.80;99.90;;;;;;20594647;28;20054;-83
2021/08/05 15:56:15;;;;;;;7.97;4.25;;;23.70;99.90;;;;;;20624267;28;20046;-83
2021/08/05 16:06:16;;;;;;;8.13;3.83;;;23.60;99.90;;;;;;20607810;28;20129;-83
2021/08/05 16:16:18;;;;;;;6.75;3.40;;;23.60;99.90;;;;;;20582115;28;20042;-84
2021/08/05 16:26:19;;;;;;;7.25;3.78;;;23.40;99.90;;;;;;20585392;28;20042;-84
2021/08/05 16:36:20;;;;;;;8.35;3.80;;;23.20;99.90;;;;;;20549810;28;20074;-85
2021/08/05 16:46:22;;;;;;;10.55;4.53;;;23.40;99.90;;;;;;20601402;28;20145;-85
2021/08/05 16:56:23;;;;;;;7.10;3.72;;;23.30;99.90;;;;;;20584756;28;20049;-85
2021/08/05 17:06:24;;;;;;;7.60;3.95;;;23.00;99.90;;;;;;20559989;28;20152;-84
2021/08/05 17:16:26;;;;;;;5.90;3.47;;;22.80;99.90;;;;;;20560967;28;20046;-85
2021/08/05 17:26:27;;;;;;;4.85;2.63;;;22.80;99.90;;;;;;20587099;28;20037;-87
2021/08/05 17:36:29;;;;;;;5.60;3.25;;;22.70;99.90;;;;;;20545331;28;20050;-86
2021/08/05 17:46:31;;;;;;;5.30;2.85;;;22.70;99.90;;;;;;20483694;28;20067;-85
2021/08/05 17:56:33;;;;;;;5.93;3.45;;;22.70;99.90;;;;;;20432128;29;20119;-85
2021/08/05 18:06:34;;;;;;;4.57;2.60;;;22.60;99.90;;;;;;20442136;28;20062;-85
2021/08/05 18:16:35;;;;;;;4.70;2.75;;;22.50;99.90;;;;;;20420941;29;20070;-85
2021/08/05 18:26:36;;;;;;;4.13;2.70;;;22.30;99.90;;;;;;20429436;28;20107;-85
2021/08/05 18:36:39;;;;;;;6.28;3.00;;;22.10;99.90;;;;;;20431815;28;20675;-86
2021/08/05 18:46:41;;;;;;;6.28;2.70;;;22.20;99.90;;;;;;20582301;28;20058;-86
2021/08/05 18:56:42;;;;;;;5.57;3.40;;;22.00;99.90;;;;;;20563165;28;20054;-86
2021/08/05 19:06:43;;;;;;;6.80;3.35;;;21.80;99.90;;;;;;20595695;28;20098;-86
2021/08/05 19:16:44;;;;;;;6.93;3.72;;;21.50;99.90;;;;;;20552307;28;20050;-86
2021/08/05 19:26:45;;;;;;;7.03;3.67;;;21.30;99.90;;;;;;20545261;28;20034;-85
2021/08/05 19:36:47;;;;;;;10.13;5.43;;;21.00;99.90;;;;;;20567444;28;20053;-85
2021/08/05 19:46:48;;;;;;;9.85;5.13;;;20.70;99.90;;;;;;20567018;28;20120;-85
2021/08/05 19:56:50;;;;;;;11.55;5.47;;;20.60;99.90;;;;;;20556655;28;20414;-85
2021/08/05 20:06:51;;;;;;;8.23;5.53;;;20.30;99.90;;;;;;20536585;28;20046;-85
2021/08/05 20:16:53;;;;;;;10.02;4.72;;;20.10;99.90;;;;;;20576995;28;20058;-85
2021/08/05 20:26:54;;;;;;;11.15;5.50;;;19.90;99.90;;;;;;20600131;28;20191;-85
2021/08/05 20:36:55;;;;;;;10.95;5.97;;;19.70;99.90;;;;;;20589700;28;20038;-84
2021/08/05 20:46:57;;;;;;;11.52;6.10;;;19.60;99.90;;;;;;20598162;28;20049;-84
2021/08/05 20:56:58;;;;;;;12.43;6.50;;;19.60;99.90;;;;;;20589318;28;20056;-84
2021/08/05 21:06:59;;;;;;;10.10;5.53;;;19.50;99.90;;;;;;20616004;28;20419;-84
2021/08/05 21:17:01;;;;;;;9.88;4.88;;;19.40;99.90;;;;;;20602967;28;20607;-85
2021/08/05 21:27:02;;;;;;;11.73;5.20;;;19.40;99.90;;;;;;20567759;28;20574;-85
2021/08/05 21:37:04;;;;;;;10.32;5.28;;;19.40;99.90;;;;;;20537719;28;20481;-86
2021/08/05 21:47:05;;;;;;;8.32;4.38;;;19.40;99.90;;;;;;20552903;28;20533;-86
2021/08/05 21:57:06;;;;;;;7.60;3.80;;;19.40;99.90;;;;;;20556952;28;20497;-85
2021/08/05 22:07:07;;;;;;;6.25;3.20;;;19.50;99.90;;;;;;20555413;28;20414;-85
2021/08/05 22:17:08;;;;;;;13.05;3.55;;;19.40;99.90;;;;;;20536769;28;20688;-86
2021/08/05 22:27:10;;;;;;;5.75;3.15;;;19.70;99.90;;;;;;20567224;28;20536;-85
2021/08/05 22:37:11;;;;;;;6.88;2.78;;;19.90;99.90;;;;;;20556200;28;20145;-85
2021/08/05 22:47:13;;;;;;;5.63;2.67;;;20.10;99.90;;;;;;20549548;28;20546;-85
2021/08/05 22:57:14;;;;;;;5.78;2.50;;;19.90;99.90;;;;;;20544108;28;20422;-85
2021/08/05 23:07:16;;;;;;;4.32;2.30;;;19.90;99.90;;;;;;20577342;28;20428;-86
2021/08/05 23:17:17;;;;;;;5.10;2.58;;;20.00;99.90;;;;;;20519313;28;20624;-85
2021/08/05 23:27:19;;;;;;;9.65;2.80;;;19.90;99.90;;;;;;20564528;28;20787;-86
2021/08/05 23:37:20;;;;;;;3.42;1.80;;;19.80;99.90;;;;;;20562224;28;20652;-86
2021/08/05 23:47:21;;;;;;;6.00;1.92;;;19.70;99.90;;;;;;20579782;28;20082;-85
2021/08/05 23:57:22;;;;;;;3.47;2.05;;;19.70;99.90;;;;;;20582806;28;20498;-85
